Aérodrome :
LOGIN :

S'inscrire | Disclaimer

   EN    FR    IT 

 










Légende :    VFR   VFR Marginal   IFR   IFR Intensif   IFR Très Intensif
Visi : 
Plafond : 
>= 8 km
>= 3000ft
5 à 8 km
1000 à 3000 ft
1500m à 5 km
500 à 1000 ft
800 à 1500m
200 à 500 ft
< 800m
< 200 ft
Symboles :   Orages  Brouillard  Fortes neiges  Fortes précipitations  Vent > 20 kt
SIGMETs :   Divers  Orages  Givrage  Turbulence  Onde Orograph.  Cendres Volcan.






- Altitude de l'aérodrome : 124 ft
- Code IATA : NHT


EGWU - RAF Northolt

DERNIER METAR :
  • 182150Z 29010KT 9999 FEW010 BKN035 BKN100 04/03 Q1015 RESHRA NOSIG RMK BLU BLU

METARs EXPIRÉS :
  • 182120Z 28012KT 9999 FEW015CB BKN040 BKN120 05/04 Q1014 TEMPO 7000 SHRA RMK BLU TEMPO WHT
  • 182050Z 30015KT 9999 -SHRA FEW010 SCT015CB BKN027 05/03 Q1014 BECMG FEW015CB RMK WHT BECMG BLU
  • 182037Z 32009G22KT 6000 SHRA BKN015CB 06/04 Q1014 BECMG 9999 FEW015CB BKN040 RMK WHT BECMG BLU
  • 182024Z 28012KT 9999 BKN024 07/03 Q1014 BECMG FEW024 BKN040 RMK WHT BECMG BLU
  • 181950Z 25014KT 9999 BKN040 BKN130 07/03 Q1014 NOSIG RMK BLU BLU

TAF TAF EGWU
Valide du 18 à 21h jusqu'au 19 à 15h UTC


181933Z 1821/1915 26012KT 9999 SCT040
PROB30
TEMPO 1821/1822 27015G25KT 7000 SHRA SCT020
BECMG 1910/1912 BKN020
TEMPO 1912/1915 7000 RA SCT014



MET'MAP, la Météo Aéronautique d'un coup d'oeil ! - Copyright ORBIFLY Décembre 2007 - Disclaimer

ORBIFLY MET'MAP TEAM :

Programmation & Développement : Alexandra Zaïnal
Sur une idée originale de : Baudouin d'Aumeries
Assistance à la programmation : Marc-Olivier Méhu
Soutien technique & logistique : Manuel Goepfert

Contact : metmap@orbifly.com




SOURCES & CREDITS :

   NOAA